Terminal Aerodrome Forecast
Issued by NWS

Home | Current Version | Previous Version | Text Only | Print | Product List | Glossary On
Versions: 1 2 3 4 5 6 7 8 9 10 11 12
000
FTUS45 KTFX 232300
TAFBZN
TAF
KBZN 232338Z 2400/2424 06006KT P6SM SCT150
     FM240600 VRB06KT P6SM BKN150
     FM241500 28006KT P6SM SCT150
     FM242100 30012G25KT P6SM SCT090 SCT150=

USA.gov is the U.S. government's official web portal to all federal, state and local government web resources and services.